Terminal Aerodrome Forecast
Issued by NWS Grand Forks, ND

Home | Current Version | Previous Version | Graphics & Text | Print | Product List | Glossary Off
Versions: 1 2 3 4 5 6 7 8 9 10 11 12 13 14 15

000
FTUS43 KFGF 272327
TAFGFK
TAF
KGFK 272327Z 2800/2824 17016KT P6SM SCT250
     FM280400 16011KT P6SM VCTS BKN080CB
      TEMPO 2806/2808 4SM -TSRA OVC035CB
     FM280900 16009KT P6SM VCTS OVC030CB
     FM281200 29009KT P6SM OVC030
     FM281800 31015G23KT P6SM BKN040=

USA.gov is the U.S. government's official web portal to all federal, state and local government web resources and services.